createdAt,value
2023-01-13T00:01:15.522Z,100074.63
2023-01-13T00:03:42.734Z,100053.59
2023-01-13T00:06:15.179Z,100062.94
2023-01-13T00:08:41.794Z,100078.03
2023-01-13T00:11:09.638Z,100069.25
2023-01-13T00:13:38.068Z,100037.47
2023-01-13T00:16:07.188Z,100058.66
2023-01-13T00:18:34.843Z,100054.38
2023-01-13T00:21:03.632Z,100045.16
2023-01-13T00:23:32.029Z,100045.28
2023-01-13T00:26:02.136Z,100052.44
2023-01-13T00:28:29.092Z,100036.22
2023-01-13T00:30:58.654Z,99984.59
2023-01-13T00:33:25.544Z,100040.47
2023-01-13T00:36:02.592Z,100033.34
2023-01-13T00:38:31.234Z,100036.78
2023-01-13T00:41:03.458Z,100038.81
2023-01-13T00:43:32.494Z,100058.59
2023-01-13T00:45:59.599Z,100045.56
2023-01-13T00:48:27.362Z,100039.78
2023-01-13T00:50:56.814Z,100045.00
2023-01-13T00:53:23.634Z,100041.69
2023-01-13T00:55:50.152Z,100050.09
2023-01-13T00:58:16.683Z,100025.34
2023-01-13T01:01:49.842Z,100043.06
2023-01-13T01:04:16.404Z,100050.91
2023-01-13T01:06:43.017Z,100037.84
2023-01-13T01:09:14.516Z,100025.88
2023-01-13T01:11:41.969Z,100011.19
2023-01-13T01:14:11.985Z,100046.53
2023-01-13T01:16:40.243Z,100067.50
2023-01-13T01:19:07.679Z,100056.13
2023-01-13T01:21:35.177Z,100067.28
2023-01-13T01:24:04.422Z,100010.56
2023-01-13T01:26:31.848Z,100056.00
2023-01-13T01:29:05.807Z,100059.56
2023-01-13T01:31:33.616Z,100024.41
2023-01-13T01:34:00.999Z,100023.09
2023-01-13T01:36:31.399Z,100028.13
2023-01-13T01:38:59.037Z,100035.22
2023-01-13T01:41:30.262Z,100060.53
2023-01-13T01:44:10.248Z,100071.31
2023-01-13T01:46:44.558Z,100057.53
2023-01-13T01:49:20.552Z,100075.78
2023-01-13T01:51:59.330Z,100065.41
2023-01-13T01:54:32.119Z,100072.28
2023-01-13T01:56:58.952Z,100054.28
2023-01-13T01:59:29.700Z,100069.25
2023-01-13T02:01:56.246Z,100072.44
2023-01-13T02:04:27.987Z,100071.88
2023-01-13T02:06:56.747Z,100068.81
2023-01-13T02:09:26.080Z,100073.44
2023-01-13T02:12:10.952Z,100071.09
2023-01-13T02:14:38.893Z,100066.13
2023-01-13T02:17:14.639Z,100068.88
2023-01-13T02:19:59.915Z,100079.41
2023-01-13T02:23:01.440Z,100085.66
2023-01-13T02:25:48.790Z,100086.38
2023-01-13T02:29:05.652Z,100081.31
2023-01-13T02:31:44.409Z,100077.75
2023-01-13T02:34:20.753Z,100077.84
2023-01-13T02:36:58.210Z,100069.69
2023-01-13T02:39:36.195Z,100070.75
2023-01-13T02:42:24.391Z,100071.84
2023-01-13T02:45:16.907Z,100065.22
2023-01-13T02:47:46.349Z,100061.34
2023-01-13T02:50:18.001Z,100053.06
2023-01-13T02:53:01.208Z,100055.78
2023-01-13T02:55:34.072Z,100054.28
2023-01-13T02:58:03.273Z,100063.84
2023-01-13T03:00:31.017Z,100059.59
2023-01-13T03:02:57.853Z,100045.72
2023-01-13T03:05:26.641Z,100042.53
2023-01-13T03:08:05.215Z,100032.97
2023-01-13T03:10:34.717Z,100027.88
2023-01-13T03:13:04.320Z,100041.97
2023-01-13T03:15:40.756Z,100035.84
2023-01-13T03:18:19.111Z,100044.56
2023-01-13T03:20:58.265Z,100047.16
2023-01-13T03:23:51.112Z,100042.91
2023-01-13T03:26:31.591Z,100039.59
2023-01-13T03:29:13.728Z,100045.19
2023-01-13T03:31:47.414Z,100048.13
2023-01-13T03:34:20.510Z,100041.28
2023-01-13T03:36:50.925Z,100045.06
2023-01-13T03:39:25.167Z,100037.63
2023-01-13T03:41:59.813Z,100047.47
2023-01-13T03:44:34.439Z,100017.66
2023-01-13T03:47:23.864Z,100051.22
2023-01-13T03:50:08.470Z,100046.88
2023-01-13T03:52:40.332Z,100052.19
2023-01-13T03:55:11.748Z,100030.69
2023-01-13T03:58:00.324Z,100040.34
2023-01-13T04:00:33.905Z,100049.09
2023-01-13T04:03:23.222Z,100045.91
2023-01-13T04:05:55.147Z,100044.16
2023-01-13T04:08:26.038Z,100050.41
2023-01-13T04:11:00.334Z,100055.75
2023-01-13T04:13:30.235Z,100055.16
2023-01-13T04:15:56.745Z,100052.91
2023-01-13T04:18:30.811Z,100046.16
2023-01-13T04:21:00.146Z,100046.97
2023-01-13T04:23:28.080Z,100048.16
2023-01-13T04:25:55.391Z,100057.63
2023-01-13T04:28:22.309Z,100055.38
2023-01-13T04:30:49.644Z,100062.81
2023-01-13T04:33:17.731Z,100051.72
2023-01-13T04:35:45.521Z,100069.22
2023-01-13T04:38:14.801Z,100056.78
2023-01-13T04:40:42.195Z,100065.31
2023-01-13T04:43:08.668Z,100069.56
2023-01-13T04:45:35.359Z,100054.19
2023-01-13T04:48:02.110Z,100055.63
2023-01-13T04:50:28.973Z,100053.81
2023-01-13T04:52:55.542Z,100059.25
2023-01-13T04:55:24.199Z,100021.56
2023-01-13T04:57:50.658Z,100036.00
2023-01-13T05:00:19.624Z,100023.59
2023-01-13T05:02:49.895Z,100037.41
2023-01-13T05:05:16.413Z,100037.41
2023-01-13T05:07:42.909Z,100022.63
2023-01-13T05:10:10.044Z,100038.47
2023-01-13T05:12:55.254Z,100031.50
2023-01-13T05:15:40.022Z,100040.94
2023-01-13T05:18:06.970Z,100032.56
2023-01-13T05:20:33.892Z,100024.91
2023-01-13T05:23:19.022Z,100047.34
2023-01-13T05:25:47.650Z,100049.34
2023-01-13T05:28:14.657Z,100045.09
2023-01-13T05:30:44.287Z,100041.56
2023-01-13T05:33:12.274Z,100037.31
2023-01-13T05:35:40.253Z,100028.06
2023-01-13T05:38:07.104Z,100041.66
2023-01-13T05:40:52.620Z,100055.63
2023-01-13T05:43:22.110Z,100059.50
2023-01-13T05:46:09.440Z,100076.66
2023-01-13T05:48:41.385Z,100080.19
2023-01-13T05:51:10.112Z,100063.66
2023-01-13T05:53:37.130Z,100052.66
2023-01-13T05:56:04.923Z,100056.78
2023-01-13T05:58:31.494Z,100067.41
2023-01-13T06:01:02.826Z,100059.38
2023-01-13T06:03:29.617Z,100066.38
2023-01-13T06:05:59.267Z,100072.28
2023-01-13T06:08:26.034Z,100072.28
2023-01-13T06:10:52.801Z,100074.75
2023-01-13T06:13:19.268Z,100085.28
2023-01-13T06:15:46.597Z,100084.09
2023-01-13T06:18:13.199Z,100068.47
2023-01-13T06:20:39.693Z,100077.22
2023-01-13T06:23:10.627Z,100085.75
2023-01-13T06:26:08.354Z,100092.72
2023-01-13T06:28:34.969Z,100090.00
2023-01-13T06:31:06.703Z,100094.50
2023-01-13T06:33:42.853Z,100087.88
2023-01-13T06:36:19.798Z,100087.63
2023-01-13T06:38:47.829Z,100088.56
2023-01-13T06:41:14.772Z,100098.16
2023-01-13T06:43:41.273Z,100101.81
2023-01-13T06:46:08.091Z,100098.28
2023-01-13T06:48:35.596Z,100081.38
2023-01-13T06:51:03.765Z,100107.50
2023-01-13T06:53:30.215Z,100119.66
2023-01-13T06:55:56.663Z,100127.56
2023-01-13T06:58:23.506Z,100117.91
2023-01-13T07:00:51.401Z,100127.22
2023-01-13T07:03:19.736Z,100129.97
2023-01-13T07:05:52.538Z,100134.44
2023-01-13T07:08:19.104Z,100126.88
2023-01-13T07:10:45.601Z,100129.72
2023-01-13T07:13:30.780Z,100132.75
2023-01-13T07:15:59.720Z,100133.25
2023-01-13T07:18:28.404Z,100122.38
2023-01-13T07:20:57.109Z,100118.97
2023-01-13T07:23:24.895Z,100131.34
2023-01-13T07:25:51.397Z,100133.22
2023-01-13T07:28:17.914Z,100124.09
2023-01-13T07:30:44.714Z,100150.81
2023-01-13T07:33:11.171Z,100138.75
2023-01-13T07:35:37.765Z,100141.84
2023-01-13T07:38:04.272Z,100152.44
2023-01-13T07:40:30.802Z,100143.13
2023-01-13T07:43:16.924Z,100157.16
2023-01-13T07:45:43.491Z,100160.72
2023-01-13T07:48:10.247Z,100152.91
2023-01-13T07:50:36.991Z,100160.44
2023-01-13T07:53:03.583Z,100175.09
2023-01-13T07:55:30.107Z,100173.09
2023-01-13T07:57:56.600Z,100162.81
2023-01-13T08:00:23.476Z,100167.06
2023-01-13T08:02:50.031Z,100160.91
2023-01-13T08:05:16.688Z,100159.25
2023-01-13T08:07:43.171Z,100160.09
2023-01-13T08:10:10.132Z,100163.75
2023-01-13T08:12:57.024Z,100156.75
2023-01-13T08:15:23.896Z,100161.97
2023-01-13T08:17:50.335Z,100168.50
2023-01-13T08:20:16.998Z,100168.16
2023-01-13T08:22:44.335Z,100178.56
2023-01-13T08:25:10.836Z,100166.97
2023-01-13T08:27:37.327Z,100172.69
2023-01-13T08:30:05.774Z,100183.09
2023-01-13T08:32:32.309Z,100168.19
2023-01-13T08:34:58.851Z,100161.00
2023-01-13T08:37:25.345Z,100188.22
2023-01-13T08:39:51.835Z,100190.56
2023-01-13T08:42:18.260Z,100191.41
2023-01-13T08:44:44.707Z,100193.53
2023-01-13T08:47:11.212Z,100188.81
2023-01-13T08:49:37.695Z,100185.78
2023-01-13T08:52:04.723Z,100197.84
2023-01-13T08:54:31.364Z,100192.63
2023-01-13T08:56:58.049Z,100184.50
2023-01-13T08:59:24.660Z,100204.34
2023-01-13T09:01:51.204Z,100198.44
2023-01-13T09:04:21.862Z,100192.31
2023-01-13T09:06:49.250Z,100191.94
2023-01-13T09:09:16.140Z,100200.47
2023-01-13T09:12:03.702Z,100193.50
2023-01-13T09:14:33.188Z,100195.75
2023-01-13T09:17:00.455Z,100193.84
2023-01-13T09:19:28.419Z,100205.56
2023-01-13T09:21:57.805Z,100205.69
2023-01-13T09:24:25.300Z,100214.91
2023-01-13T09:26:51.929Z,100194.09
2023-01-13T09:29:18.632Z,100190.78
2023-01-13T09:31:45.114Z,100208.66
2023-01-13T09:34:34.623Z,100213.03
2023-01-13T09:37:01.253Z,100202.97
2023-01-13T09:39:27.793Z,100206.75
2023-01-13T09:42:16.854Z,100237.53
2023-01-13T09:45:09.063Z,100217.16
2023-01-13T09:47:43.801Z,100211.59
2023-01-13T09:50:34.205Z,100209.84
2023-01-13T09:53:01.245Z,100219.91
2023-01-13T09:55:36.694Z,100211.59
2023-01-13T09:58:13.144Z,100219.78
2023-01-13T10:00:47.141Z,100244.63
2023-01-13T10:03:19.458Z,100222.25
2023-01-13T10:05:51.573Z,100200.72
2023-01-13T10:08:25.731Z,100237.28
2023-01-13T10:10:58.427Z,100244.63
2023-01-13T10:13:27.745Z,100258.09
2023-01-13T10:16:45.437Z,100228.19
2023-01-13T10:19:29.932Z,100247.22
2023-01-13T10:22:19.731Z,100227.94
2023-01-13T10:25:08.597Z,100243.56
2023-01-13T10:27:38.270Z,100266.91
2023-01-13T10:30:31.243Z,100248.41
2023-01-13T10:33:06.232Z,100253.88
2023-01-13T10:35:55.586Z,100240.00
2023-01-13T10:38:21.952Z,100250.66
2023-01-13T10:40:51.228Z,100255.66
2023-01-13T10:43:17.863Z,100260.50
2023-01-13T10:45:55.748Z,100260.50
2023-01-13T10:48:22.335Z,100261.81
2023-01-13T10:50:48.956Z,100269.53
2023-01-13T10:53:25.685Z,100272.22
2023-01-13T10:56:03.804Z,100259.91
2023-01-13T10:58:30.353Z,100265.34
2023-01-13T11:01:05.608Z,100273.91
2023-01-13T11:03:42.777Z,100296.97
2023-01-13T11:06:19.109Z,100288.81
2023-01-13T11:08:49.261Z,100268.22
2023-01-13T11:11:39.965Z,100281.72
2023-01-13T11:14:36.508Z,100275.56
2023-01-13T11:17:12.231Z,100279.34
2023-01-13T11:19:47.484Z,100274.25
2023-01-13T11:22:23.884Z,100265.72
2023-01-13T11:24:52.912Z,100221.19
2023-01-13T11:27:34.380Z,100275.31
2023-01-13T11:30:25.775Z,100271.66
2023-01-13T11:33:10.738Z,100271.28
2023-01-13T11:36:09.172Z,100276.00
2023-01-13T11:38:54.855Z,100278.63
2023-01-13T11:41:43.470Z,100276.38
2023-01-13T11:44:09.883Z,100293.66
2023-01-13T11:46:36.974Z,100300.31
2023-01-13T11:49:04.916Z,100306.81
2023-01-13T11:51:49.884Z,100304.31
2023-01-13T11:54:49.038Z,100301.69
2023-01-13T11:57:24.703Z,100293.19
2023-01-13T12:00:18.023Z,100293.44
2023-01-13T12:03:07.363Z,100278.41
2023-01-13T12:05:42.155Z,100279.00
2023-01-13T12:08:18.208Z,100260.13
2023-01-13T12:10:58.312Z,100295.09
2023-01-13T12:13:43.330Z,100267.03
2023-01-13T12:16:19.109Z,100286.78
2023-01-13T12:18:55.860Z,100291.53
2023-01-13T12:21:26.357Z,100254.44
2023-01-13T12:24:13.362Z,100283.09
2023-01-13T12:26:46.296Z,100296.25
2023-01-13T12:29:18.990Z,100310.34
2023-01-13T12:31:49.076Z,100314.81
2023-01-13T12:34:35.872Z,100310.44
2023-01-13T12:37:24.379Z,100329.97
2023-01-13T12:40:20.396Z,100329.25
2023-01-13T12:43:21.623Z,100339.31
2023-01-13T12:45:48.140Z,100341.66
2023-01-13T12:48:56.655Z,100364.47
2023-01-13T12:51:28.649Z,100353.97
2023-01-13T12:53:56.371Z,100342.59
2023-01-13T12:56:36.489Z,100358.22
2023-01-13T12:59:24.253Z,100358.81
2023-01-13T13:02:11.850Z,100355.38
2023-01-13T13:04:51.835Z,100373.00
2023-01-13T13:07:31.891Z,100366.97
2023-01-13T13:10:04.467Z,100357.88
2023-01-13T13:12:49.699Z,100371.09
2023-01-13T13:15:26.364Z,100367.78
2023-01-13T13:17:59.157Z,100378.69
2023-01-13T13:20:55.188Z,100365.06
2023-01-13T13:23:50.070Z,100374.44
2023-01-13T13:26:30.725Z,100379.88
2023-01-13T13:29:15.807Z,100388.53
2023-01-13T13:31:45.160Z,100393.72
2023-01-13T13:34:42.885Z,100398.69
2023-01-13T13:37:30.768Z,100408.63
2023-01-13T13:40:15.858Z,100410.28
2023-01-13T13:43:32.880Z,100408.97
2023-01-13T13:46:18.031Z,100397.72
2023-01-13T13:48:55.333Z,100416.25
2023-01-13T13:51:38.476Z,100410.19
2023-01-13T13:54:05.981Z,100349.88
2023-01-13T13:56:38.304Z,100431.69
2023-01-13T13:59:04.861Z,100431.00
2023-01-13T14:01:37.068Z,100423.69
2023-01-13T14:04:15.259Z,100429.72
2023-01-13T14:06:56.712Z,100457.06
2023-01-13T14:09:25.581Z,100419.31
2023-01-13T14:11:57.287Z,100448.03
2023-01-13T14:14:24.547Z,100462.31
2023-01-13T14:16:52.021Z,100448.41
2023-01-13T14:19:35.155Z,100458.56
2023-01-13T14:22:04.043Z,100451.38
2023-01-13T14:24:31.672Z,100445.28
2023-01-13T14:27:15.163Z,100477.38
2023-01-13T14:29:41.845Z,100480.81
2023-01-13T14:32:08.914Z,100480.34
2023-01-13T14:34:35.752Z,100487.34
2023-01-13T14:37:03.026Z,100470.56
2023-01-13T14:39:39.711Z,100497.91
2023-01-13T14:42:12.904Z,100489.34
2023-01-13T14:44:44.851Z,100503.16
2023-01-13T14:47:22.940Z,100503.78
2023-01-13T14:50:01.042Z,100515.56
2023-01-13T14:52:32.803Z,100521.56
2023-01-13T14:55:11.120Z,100524.88
2023-01-13T14:57:41.308Z,100537.69
2023-01-13T15:00:13.599Z,100532.28
2023-01-13T15:02:50.905Z,100544.13
2023-01-13T15:05:17.398Z,100558.16
2023-01-13T15:07:52.791Z,100549.13
2023-01-13T15:12:51.896Z,100559.38
2023-01-13T15:15:29.106Z,100564.81
2023-01-13T15:17:56.825Z,100533.44
2023-01-13T15:20:24.872Z,100567.75
2023-01-13T15:22:52.546Z,100548.72
2023-01-13T15:25:20.190Z,100562.97
2023-01-13T15:27:50.708Z,100594.81
2023-01-13T15:30:27.053Z,100589.28
2023-01-13T15:32:55.404Z,100598.22
2023-01-13T15:35:24.111Z,100608.66
2023-01-13T15:37:51.275Z,100608.66
2023-01-13T15:40:30.362Z,100607.94
2023-01-13T15:43:15.752Z,100613.03
2023-01-13T15:46:02.199Z,100608.66
2023-01-13T15:48:32.076Z,100597.03
2023-01-13T15:50:59.531Z,100627.06
2023-01-13T15:53:27.603Z,100634.78
2023-01-13T15:55:56.766Z,100631.66
2023-01-13T15:58:28.506Z,100635.72
2023-01-13T16:00:55.486Z,100599.09
2023-01-13T16:03:22.445Z,100638.41
2023-01-13T16:05:49.075Z,100634.56
2023-01-13T16:08:19.804Z,100636.84
2023-01-13T16:10:46.789Z,100645.81
2023-01-13T16:13:13.928Z,100646.94
2023-01-13T16:15:50.140Z,100657.44
2023-01-13T16:18:19.347Z,100664.63
2023-01-13T16:20:46.714Z,100637.22
2023-01-13T16:23:13.715Z,100668.34
2023-01-13T16:25:43.045Z,100649.84
2023-01-13T16:28:20.547Z,100668.34
2023-01-13T16:30:47.125Z,100671.16
2023-01-13T16:33:14.111Z,100674.50
2023-01-13T16:36:09.316Z,100699.34
2023-01-13T16:38:27.163Z,100696.22
2023-01-13T16:40:56.900Z,100695.81
2023-01-13T16:43:23.360Z,100705.78
2023-01-13T16:45:49.988Z,100714.44
2023-01-13T16:48:20.440Z,100717.75
2023-01-13T16:50:47.466Z,100722.16
2023-01-13T16:53:13.984Z,100735.66
2023-01-13T16:55:41.676Z,100725.56
2023-01-13T16:58:26.284Z,100736.69
2023-01-13T17:00:53.148Z,100734.31
2023-01-13T17:03:19.715Z,100746.91
2023-01-13T17:05:49.385Z,100727.78
2023-01-13T17:08:18.106Z,100727.78
2023-01-13T17:10:45.792Z,100734.03
2023-01-13T17:13:16.417Z,100737.34
2023-01-13T17:15:43.923Z,100740.50
2023-01-13T17:18:11.488Z,100746.34
2023-01-13T17:20:37.941Z,100743.91
2023-01-13T17:23:04.428Z,100748.72
2023-01-13T17:25:30.944Z,100752.25
2023-01-13T17:27:58.069Z,100775.38
2023-01-13T17:30:24.771Z,100777.75
2023-01-13T17:32:51.269Z,100767.34
2023-01-13T17:35:22.832Z,100777.34
2023-01-13T17:37:49.344Z,100781.72
2023-01-13T17:40:17.070Z,100783.59
2023-01-13T17:42:43.553Z,100787.75
2023-01-13T17:45:13.435Z,100804.22
2023-01-13T17:47:39.864Z,100806.06
2023-01-13T17:50:06.677Z,100811.81
2023-01-13T17:52:34.268Z,100797.78
2023-01-13T17:55:00.750Z,100802.13
2023-01-13T17:57:27.229Z,100795.91
2023-01-13T17:59:53.681Z,100803.69
2023-01-13T18:02:20.282Z,100811.50
2023-01-13T18:04:46.979Z,100805.28
2023-01-13T18:07:13.434Z,100809.44
2023-01-13T18:09:39.969Z,100812.78
2023-01-13T18:12:06.807Z,100821.31
2023-01-13T18:14:34.237Z,100818.72
2023-01-13T18:17:01.129Z,100814.44
2023-01-13T18:19:46.012Z,100804.13
2023-01-13T18:22:33.851Z,100817.03
2023-01-13T18:25:18.628Z,100818.72
2023-01-13T18:27:45.582Z,100818.78
2023-01-13T18:30:13.816Z,100823.06
2023-01-13T18:32:40.403Z,100824.63
2023-01-13T18:35:10.341Z,100835.91
2023-01-13T18:37:41.915Z,100829.84
2023-01-13T18:40:11.214Z,100826.31
2023-01-13T18:42:54.239Z,100841.91
2023-01-13T18:45:29.849Z,100838.28
2023-01-13T18:47:58.717Z,100849.63
2023-01-13T18:50:26.033Z,100790.25
2023-01-13T18:52:52.935Z,100842.97
2023-01-13T18:55:19.835Z,100841.28
2023-01-13T18:57:46.711Z,100846.31
2023-01-13T19:00:17.126Z,100849.22
2023-01-13T19:02:44.658Z,100859.41
2023-01-13T19:05:11.449Z,100859.50
2023-01-13T19:07:38.142Z,100868.25
2023-01-13T19:10:06.575Z,100862.41
2023-01-13T19:12:33.819Z,100864.28
2023-01-13T19:15:01.675Z,100868.69
2023-01-13T19:17:32.637Z,100837.25
2023-01-13T19:20:00.028Z,100878.31
2023-01-13T19:22:30.318Z,100880.84
2023-01-13T19:24:57.796Z,100874.06
2023-01-13T19:27:25.013Z,100875.09
2023-01-13T19:29:53.733Z,100876.97
2023-01-13T19:32:21.930Z,100874.56
2023-01-13T19:34:51.102Z,100894.53
2023-01-13T19:37:19.048Z,100860.31
2023-01-13T19:39:45.675Z,100893.28
2023-01-13T19:42:31.592Z,100911.75
2023-01-13T19:45:16.382Z,100894.91
2023-01-13T19:47:45.322Z,100898.03
2023-01-13T19:50:13.633Z,100910.38
2023-01-13T19:52:41.012Z,100908.84
2023-01-13T19:55:07.971Z,100915.16
2023-01-13T19:57:34.457Z,100928.88
2023-01-13T20:00:01.098Z,100939.59
2023-01-13T20:02:28.231Z,100940.53
2023-01-13T20:04:56.646Z,100943.31
2023-01-13T20:07:25.023Z,100945.81
2023-01-13T20:09:52.753Z,100951.28
2023-01-13T20:12:24.188Z,100944.63
2023-01-13T20:14:51.437Z,100960.22
2023-01-13T20:17:22.170Z,100953.56
2023-01-13T20:19:48.870Z,100958.00
2023-01-13T20:22:15.863Z,100965.91
2023-01-13T20:24:42.457Z,100964.22
2023-01-13T20:27:09.085Z,100950.41
2023-01-13T20:29:35.646Z,100960.88
2023-01-13T20:32:02.624Z,100958.41
2023-01-13T20:34:29.705Z,100969.69
2023-01-13T20:36:56.537Z,100968.03
2023-01-13T20:39:27.928Z,100967.22
2023-01-13T20:42:13.531Z,100970.63
2023-01-13T20:44:40.704Z,100985.41
2023-01-13T20:47:07.946Z,100978.25
2023-01-13T20:49:36.789Z,100986.06
2023-01-13T20:52:09.334Z,101001.56
2023-01-13T20:54:37.307Z,101004.25
2023-01-13T20:57:07.940Z,101015.47
2023-01-13T20:59:34.458Z,101010.13
2023-01-13T21:02:01.397Z,101010.13
2023-01-13T21:04:28.194Z,101016.22
2023-01-13T21:06:56.128Z,101012.22
2023-01-13T21:09:23.842Z,101010.41
2023-01-13T21:12:09.712Z,101017.16
2023-01-13T21:14:55.002Z,101018.94
2023-01-13T21:17:40.425Z,101007.69
2023-01-13T21:20:09.712Z,101013.63
2023-01-13T21:22:36.234Z,101011.78
2023-01-13T21:25:04.045Z,101018.94
2023-01-13T21:27:31.150Z,101022.28
2023-01-13T21:29:57.914Z,101014.56
2023-01-13T21:32:24.412Z,101018.94
2023-01-13T21:34:50.995Z,101023.84
2023-01-13T21:37:18.530Z,101024.94
2023-01-13T21:39:45.352Z,101029.06
2023-01-13T21:42:34.545Z,101029.34
2023-01-13T21:45:21.521Z,101032.94
2023-01-13T21:47:51.995Z,101039.34
2023-01-13T21:50:24.257Z,101043.16
2023-01-13T21:52:52.554Z,101050.22
2023-01-13T21:55:20.741Z,101059.13
2023-01-13T21:57:52.461Z,101049.84
2023-01-13T22:00:20.676Z,101052.59
2023-01-13T22:02:48.302Z,101056.78
2023-01-13T22:05:17.320Z,101062.16
2023-01-13T22:07:43.851Z,101061.50
2023-01-13T22:10:13.809Z,101060.78
2023-01-13T22:12:40.509Z,101064.38
2023-01-13T22:15:07.824Z,101059.25
2023-01-13T22:17:34.338Z,101074.13
2023-01-13T22:20:01.383Z,101062.72
2023-01-13T22:22:29.150Z,101072.06
2023-01-13T22:24:55.687Z,101074.84
2023-01-13T22:27:25.297Z,101073.19
2023-01-13T22:29:52.963Z,101076.72
2023-01-13T22:32:20.767Z,101083.75
2023-01-13T22:37:14.417Z,101080.31
2023-01-13T22:39:41.057Z,101096.84
2023-01-13T22:42:07.647Z,101096.91
2023-01-13T22:44:34.244Z,101112.34
2023-01-13T22:47:00.753Z,101120.97
2023-01-13T22:49:27.268Z,101113.44
2023-01-13T22:51:53.818Z,101117.69
2023-01-13T22:54:20.679Z,101120.28
2023-01-13T22:56:47.146Z,101109.16
2023-01-13T22:59:14.474Z,101108.31
2023-01-13T23:01:42.115Z,101114.44
2023-01-13T23:04:12.112Z,101112.69
2023-01-13T23:06:38.693Z,101110.16
2023-01-13T23:09:05.221Z,101115.47
2023-01-13T23:11:32.249Z,101132.88
2023-01-13T23:14:01.122Z,101121.56
2023-01-13T23:16:29.243Z,101122.59
2023-01-13T23:18:56.153Z,101119.16
2023-01-13T23:21:26.143Z,101115.81
2023-01-13T23:23:53.596Z,101125.28
2023-01-13T23:26:21.145Z,101124.28
2023-01-13T23:28:48.437Z,101131.22
2023-01-13T23:31:18.354Z,101138.06
2023-01-13T23:33:45.473Z,101149.31
2023-01-13T23:36:15.111Z,101150.13
2023-01-13T23:38:42.446Z,101149.41
2023-01-13T23:41:10.415Z,101146.72
2023-01-13T23:43:37.207Z,101137.34
2023-01-13T23:46:06.058Z,101137.25
2023-01-13T23:48:33.060Z,101143.53
2023-01-13T23:51:01.033Z,101124.34
2023-01-13T23:53:39.970Z,101128.06
2023-01-13T23:56:10.312Z,101123.50
2023-01-13T23:58:36.906Z,101116.63
